Rancho Santa Fe (307) Station Data

Red Flag Warning: No
Fire Weather Zone: 243
SDGE Region: North Coast
Lat/Lon: 33.033/-117.189

Observations

Time Wind Speed/Gust Temp(F) RH Fuel Moist Fuel Temp(F) Dewpt(F) Tmax(F) Tmin(F) Accum Precip 10-min Precip SL Press(mb)
3/29 8:00am 90 1 G 2 53° 71% - - 44° 54° 45.6° - - -
3/29 7:50am 59 1 G 2 53° 73% - - 44° 54° 45.6° - - -
3/29 7:40am 63 1 G 3 53° 72% - - 44° 53.5° 45.6° - - -
3/29 7:30am 77 1 G 1 51° 77% - - 44° 53.3° 45.6° - - -
3/29 7:20am 225 1 G 1 50° 79% - - 44° 53.3° 45.6° - - -
3/29 7:10am 263 1 G 1 49° 81% - - 43° 53.3° 45.6° - - -
3/29 7:00am 337 1 G 1 48° 84% - - 43° 53.3° 45.6° - - -
3/29 6:50am 37 1 G 1 47° 85% - - 43° 53.3° 45.6° - - -
3/29 6:40am 57 1 G 1 47° 86% - - 43° 53.3° 45.6° - - -
3/29 6:30am 44 1 G 1 47° 87% - - 43° 53.3° 45.6° - - -
3/29 6:20am 58 1 G 1 47° 87% - - 43° 53.3° 45.6° - - -
3/29 6:10am 70 1 G 1 46° 89% - - 43° 53.3° 45.6° - - -
3/29 6:00am 46 1 G 1 46° 88% - - 43° 53.3° 45.6° - - -
3/29 5:50am 29 1 G 1 47° 88% - - 43° 53.3° 46° - - -
3/29 5:40am 28 1 G 1 46° 88% - - 43° 53.3° 46.1° - - -
3/29 5:30am 15 1 G 1 47° 86% - - 43° 53.3° 46.1° - - -
3/29 5:20am 23 1 G 1 48° 86% - - 44° 53.3° 46.4° - - -
3/29 5:10am 341 1 G 1 48° 86% - - 44° 53.3° 46.4° - - -
3/29 5:00am 85 1 G 1 47° 87% - - 43° 53.3° 46.4° - - -
3/29 4:50am 64 1 G 3 47° 86% - - 43° 53.3° 46.4° - - -
3/29 4:40am 81 2 G 4 48° 85% - - 44° 53.3° 46.6° - - -
3/29 4:30am 171 1 G 1 48° 84% - - 44° 53.3° 47.8° - - -
3/29 4:20am 143 1 G 1 49° 82% - - 44° 53.3° 48.1° - - -
3/29 4:10am 357 1 G 2 51° 77% - - 44° 53.3° 48.3° - - -
3/29 4:00am 240 1 G 1 50° 78% - - 43° 53.3° 48.3° - - -
3/29 3:50am 242 2 G 3 50° 79% - - 44° 53.3° 48.3° - - -
3/29 3:40am 347 1 G 1 49° 81% - - 43° 53.3° 48.3° - - -
3/29 3:30am 74 1 G 2 49° 80% - - 43° 53.3° 48.3° - - -
3/29 3:20am 78 1 G 2 51° 73% - - 43° 53.3° 48.8° - - -
3/29 3:10am 298 1 G 2 51° 76% - - 44° 53.1° 48.8° - - -
3/29 3:00am 115 1 G 1 50° 78% - - 44° 53.1° 48.8° - - -
3/29 2:50am 349 1 G 1 52° 75% - - 44° 53.1° 48.8° - - -
3/29 2:40am 67 1 G 3 51° 76% - - 44° 53.1° 48.8° - - -
3/29 2:30am 72 1 G 4 50° 77% - - 43° 53.1° 48.8° - - -
3/29 2:20am 55 1 G 3 49° 79% - - 43° 53.1° 48.8° - - -
3/29 2:10am 51 1 G 3 50° 80% - - 44° 53.1° 49.1° - - -
3/29 2:00am 8 1 G 1 50° 80% - - 44° 53.1° 49.5° - - -
3/29 1:50am 42 1 G 1 50° 79% - - 44° 53.1° 49.5° - - -
3/29 1:40am 202 1 G 1 51° 75% - - 44° 53.1° 49.5° - - -
3/29 1:30am 235 1 G 2 52° 73% - - 44° 53.1° 49.5° - - -
3/29 1:20am 75 1 G 1 52° 74% - - 44° 53.1° 49.5° - - -
3/29 1:10am 76 1 G 1 52° 74% - - 44° 53.1° 49.5° - - -
3/29 1:00am 61 1 G 1 51° 77% - - 44° 53.1° 49.5° - - -
3/29 12:50am 52 1 G 1 52° 75% - - 44° 53.1° 49.5° - - -
3/29 12:40am 64 1 G 2 52° 75% - - 45° 53.1° 49.5° - - -
3/29 12:30am 22 1 G 1 51° 77% - - 44° 52.7° 49.5° - - -
3/29 12:20am 38 1 G 1 51° 77% - - 44° 52.3° 49.5° - - -
3/29 12:10am 69 1 G 3 51° 78% - - 44° 52.2° 49.8° - - -
3/29 12:00am 37 1 G 1 50° 79% - - 44° 70.1° 46° - - -
3/28 11:50pm 57 1 G 1 50° 81% - - 44° 70.1° 46° - - -
3/28 11:40pm 354 1 G 1 50° 81% - - 45° 70.1° 46° - - -
3/28 11:30pm 262 1 G 1 51° 79% - - 45° 70.1° 46° - - -
3/28 11:20pm 260 1 G 1 51° 79% - - 45° 70.1° 46° - - -
3/28 11:10pm 259 1 G 1 51° 80% - - 45° 70.1° 46° - - -
3/28 11:00pm 267 1 G 1 52° 79% - - 45° 70.1° 46° - - -
3/28 10:50pm 297 1 G 1 51° 80% - - 45° 70.1° 46° - - -
3/28 10:40pm 292 1 G 1 51° 79% - - 45° 70.1° 46° - - -
3/28 10:30pm 299 1 G 1 52° 79% - - 45° 70.1° 46° - - -
3/28 10:20pm 11 1 G 1 52° 78% - - 45° 70.1° 46° - - -
3/28 10:10pm 12 1 G 1 52° 77% - - 45° 70.1° 46° - - -
3/28 10:00pm 6 1 G 1 53° 77% - - 45° 70.1° 46° - - -
3/28 9:50pm 355 1 G 1 53° 76% - - 46° 70.1° 46° - - -
3/28 9:40pm 2 1 G 1 53° 76% - - 45° 70.1° 46° - - -
3/28 9:30pm 2 1 G 1 53° 74% - - 45° 70.1° 46° - - -
3/28 9:20pm 2 1 G 1 54° 73% - - 46° 70.1° 46° - - -
3/28 9:10pm 2 1 G 1 54° 72% - - 46° 70.1° 46° - - -
3/28 9:00pm 19 1 G 1 55° 70% - - 46° 70.1° 46° - - -
3/28 8:50pm 148 1 G 1 55° 71% - - 46° 70.1° 46° - - -
3/28 8:40pm 73 1 G 1 55° 70% - - 46° 70.1° 46° - - -
3/28 8:30pm 103 1 G 1 56° 71% - - 46° 70.1° 46° - - -
3/28 8:20pm 99 1 G 1 56° 70% - - 47° 70.1° 46° - - -
3/28 8:10pm 286 1 G 1 58° 67% - - 47° 70.1° 46° - - -
3/28 8:00pm 234 1 G 1 58° 65% - - 46° 70.1° 46° - - -
3/28 7:50pm 229 1 G 1 60° 61% - - 46° 70.1° 46° - - -
3/28 7:40pm 250 1 G 1 61° 57% - - 46° 70.1° 46° - - -
3/28 7:30pm 274 1 G 1 62° 53% - - 45° 70.1° 46° - - -
3/28 7:20pm 293 1 G 2 63° 50% - - 44° 70.1° 46° - - -
3/28 7:10pm 258 1 G 2 63° 50% - - 44° 70.1° 46° - - -
3/28 7:00pm 227 1 G 1 63° 49% - - 44° 70.1° 46° - - -
3/28 6:50pm 239 1 G 3 64° 47% - - 43° 70.1° 46° - - -
3/28 6:40pm 259 1 G 4 65° 45% - - 43° 70.1° 46° - - -
3/28 6:30pm 285 1 G 3 65° 46% - - 44° 70.1° 46° - - -
3/28 6:20pm 314 2 G 5 66° 45% - - 44° 70.1° 46° - - -
3/28 6:10pm 287 1 G 2 66° 45% - - 44° 70.1° 46° - - -
3/28 6:00pm 333 3 G 7 66° 46% - - 44° 70.1° 46° - - -
3/28 5:50pm 306 2 G 6 66° 46% - - 45° 70.1° 46° - - -
3/28 5:40pm 280 3 G 7 67° 45% - - 45° 70.1° 46° - - -
3/28 5:30pm 303 2 G 6 67° 46% - - 45° 70.1° 46° - - -
3/28 5:20pm 271 3 G 9 67° 47% - - 46° 70.1° 46° - - -
3/28 5:10pm 279 5 G 10 66° 45% - - 44° 70.1° 46° - - -
3/28 5:00pm 260 4 G 10 67° 45% - - 45° 70.1° 46° - - -
3/28 4:50pm 261 5 G 9 67° 46% - - 45° 70.1° 46° - - -
3/28 4:40pm 273 5 G 12 67° 45% - - 45° 70.1° 46° - - -
3/28 4:30pm 285 4 G 11 68° 43% - - 44° 70.1° 46° - - -
3/28 4:20pm 273 5 G 10 68° 44% - - 45° 70.1° 46° - - -
3/28 4:10pm 282 4 G 10 68° 41% - - 43° 70.1° 46° - - -
3/28 4:00pm 300 5 G 11 68° 42% - - 44° 70.1° 46° - - -
3/28 3:50pm 280 5 G 13 68° 42% - - 44° 70.1° 46° - - -
3/28 3:40pm 267 6 G 15 67° 43% - - 44° 70.1° 46° - - -
3/28 3:30pm 251 7 G 15 68° 43% - - 44° 70.1° 46° - - -
3/28 3:20pm 253 6 G 13 69° 41% - - 44° 70.1° 46° - - -
3/28 3:10pm 274 4 G 9 69° 44% - - 46° 70.1° 46° - - -
3/28 3:00pm 259 4 G 8 69° 45% - - 46° 70.1° 46° - - -
3/28 2:50pm 262 6 G 11 68° 46% - - 47° 70.1° 46° - - -
3/28 2:40pm 250 6 G 11 69° 43% - - 45° 70.1° 46° - - -
3/28 2:30pm 252 5 G 10 69° 41% - - 45° 70.1° 46° - - -
3/28 2:20pm 262 4 G 11 68° 43% - - 45° 69.5° 46° - - -
3/28 2:10pm 266 6 G 12 68° 45% - - 46° 68.9° 46° - - -
3/28 2:00pm 255 5 G 10 68° 49% - - 48° 68.9° 46° - - -
3/28 1:50pm 263 5 G 11 67° 49% - - 48° 68.9° 46° - - -
3/28 1:40pm 237 4 G 10 68° 51% - - 49° 68.9° 46° - - -
3/28 1:30pm 241 6 G 12 66° 55% - - 50° 67.7° 46° - - -
3/28 1:20pm 245 6 G 12 67° 58% - - 51° 67.7° 46° - - -
3/28 1:10pm 262 4 G 10 67° 55% - - 50° 67.7° 46° - - -
3/28 1:00pm 286 3 G 8 66° 59% - - 51° 67.7° 46° - - -
3/28 12:50pm 257 6 G 11 66° 59% - - 51° 67.7° 46° - - -
3/28 12:40pm 282 4 G 11 66° 60% - - 51° 67.7° 46° - - -
3/28 12:30pm 263 4 G 11 66° 58% - - 51° 67.7° 46° - - -
3/28 12:20pm 254 7 G 12 65° 56% - - 49° 67.7° 46° - - -
3/28 12:10pm 259 4 G 12 67° 50% - - 47° 67.7° 46° - - -
3/28 12:00pm 261 5 G 12 66° 48% - - 46° 67° 46° - - -
3/28 11:50am 274 6 G 10 65° 52% - - 47° 67° 46° - - -
3/28 11:40am 283 6 G 13 66° 55% - - 49° 67° 46° - - -
3/28 11:30am 263 6 G 11 65° 59% - - 51° 67° 46° - - -
3/28 11:20am 246 7 G 11 65° 60% - - 51° 67° 46° - - -
3/28 11:10am 233 5 G 11 65° 59% - - 51° 67° 46° - - -
3/28 11:00am 227 6 G 10 65° 58% - - 50° 67° 46° - - -
3/28 10:50am 233 7 G 11 65° 60% - - 51° 67° 46° - - -
3/28 10:40am 246 5 G 10 64° 64% - - 52° 67° 46° - - -
3/28 10:30am 240 6 G 12 64° 63% - - 51° 67° 46° - - -
3/28 10:20am 278 3 G 8 66° 49% - - 46° 67° 46° - - -
3/28 10:10am 245 3 G 7 65° 57% - - 49° 65.7° 46° - - -
3/28 10:00am 239 2 G 6 63° 62% - - 50° 64° 46° - - -
3/28 9:50am 238 1 G 4 62° 64% - - 50° 63° 46° - - -
3/28 9:40am 192 1 G 4 61° 66% - - 50° 62.5° 46° - - -
3/28 9:30am 187 1 G 3 60° 69% - - 50° 61.4° 46° - - -
3/28 9:20am 81 2 G 5 59° 70% - - 49° 60.3° 46° - - -
3/28 9:10am 76 1 G 4 59° 70% - - 49° 60.3° 46° - - -
3/28 9:00am 116 1 G 2 58° 73% - - 49° 58.6° 46° - - -
3/28 8:50am 98 1 G 3 56° 75% - - 49° 57.5° 46° - - -
3/28 8:40am 78 1 G 3 56° 76% - - 48° 56.5° 46° - - -
3/28 8:30am 96 1 G 2 56° 77% - - 49° 56.1° 46° - - -
3/28 8:20am 88 1 G 1 54° 80% - - 48° 55.7° 46° - - -
3/28 8:10am 81 1 G 3 53° 84% - - 48° 53.3° 46° - - -
3/28 8:00am 70 3 G 5 52° 86% - - 47° 52.4° 46° - - -
3/28 7:50am 71 3 G 5 51° 88% - - 47° 52.3° 46° - - -
3/28 7:40am 80 2 G 6 50° 90% - - 47° 52.3° 46° - - -
3/28 7:30am 66 1 G 4 49° 93% - - 47° 52.3° 46° - - -
3/28 7:20am 45 1 G 3 49° 94% - - 47° 52.3° 46° - - -
3/28 7:10am 170 1 G 3 48° 95% - - 46° 52.3° 46° - - -
3/28 7:00am 269 1 G 2 48° 95% - - 46° 52.3° 46° - - -
3/28 6:50am 37 1 G 1 47° 95% - - 46° 52.3° 46° - - -
3/28 6:40am 47 1 G 3 47° 95% - - 46° 52.3° 46° - - -
3/28 6:30am 65 1 G 2 47° 95% - - 46° 52.3° 46° - - -
3/28 6:20am 78 1 G 3 47° 95% - - 45° 52.3° 46° - - -
3/28 6:10am 72 1 G 2 47° 94% - - 45° 52.3° 46° - - -
3/28 6:00am 14 1 G 1 48° 95% - - 46° 52.3° 46.7° - - -